sensor_id;sensor_type;location;lat;lon;timestamp;P1;durP1;ratioP1;P2;durP2;ratioP2
26540;SDS011;14206;50.202;10.948;2023-04-29T00:00:42;8.43;;;7.63;;
26540;SDS011;14206;50.202;10.948;2023-04-29T00:03:09;10.95;;;9.85;;
26540;SDS011;14206;50.202;10.948;2023-04-29T00:05:36;9.40;;;8.50;;
26540;SDS011;14206;50.202;10.948;2023-04-29T00:08:04;9.45;;;8.55;;
26540;SDS011;14206;50.202;10.948;2023-04-29T00:10:31;10.23;;;9.13;;
26540;SDS011;14206;50.202;10.948;2023-04-29T00:12:58;10.20;;;9.20;;
26540;SDS011;14206;50.202;10.948;2023-04-29T00:15:25;8.15;;;7.35;;
26540;SDS011;14206;50.202;10.948;2023-04-29T00:17:52;7.40;;;6.70;;
26540;SDS011;14206;50.202;10.948;2023-04-29T00:20:19;7.72;;;6.50;;
26540;SDS011;14206;50.202;10.948;2023-04-29T00:22:45;9.25;;;8.02;;
26540;SDS011;14206;50.202;10.948;2023-04-29T00:25:12;8.20;;;7.40;;
26540;SDS011;14206;50.202;10.948;2023-04-29T00:27:39;10.63;;;9.30;;
26540;SDS011;14206;50.202;10.948;2023-04-29T00:30:08;8.30;;;7.50;;
26540;SDS011;14206;50.202;10.948;2023-04-29T00:32:35;9.57;;;8.63;;
26540;SDS011;14206;50.202;10.948;2023-04-29T00:35:02;8.60;;;7.75;;
26540;SDS011;14206;50.202;10.948;2023-04-29T00:37:28;7.18;;;6.47;;
26540;SDS011;14206;50.202;10.948;2023-04-29T00:39:55;5.95;;;5.35;;
26540;SDS011;14206;50.202;10.948;2023-04-29T00:42:22;5.20;;;4.75;;
26540;SDS011;14206;50.202;10.948;2023-04-29T00:44:50;6.70;;;6.10;;
26540;SDS011;14206;50.202;10.948;2023-04-29T00:47:17;6.43;;;5.82;;
26540;SDS011;14206;50.202;10.948;2023-04-29T00:49:44;6.00;;;5.50;;
26540;SDS011;14206;50.202;10.948;2023-04-29T00:52:10;6.10;;;5.50;;
26540;SDS011;14206;50.202;10.948;2023-04-29T00:54:40;6.60;;;6.00;;
26540;SDS011;14206;50.202;10.948;2023-04-29T00:57:07;6.22;;;5.63;;
26540;SDS011;14206;50.202;10.948;2023-04-29T00:59:34;5.75;;;5.25;;
26540;SDS011;14206;50.202;10.948;2023-04-29T01:02:02;6.75;;;6.15;;
26540;SDS011;14206;50.202;10.948;2023-04-29T01:04:30;5.20;;;4.70;;
26540;SDS011;14206;50.202;10.948;2023-04-29T01:10:38;6.45;;;5.45;;
26540;SDS011;14206;50.202;10.948;2023-04-29T01:16:22;5.75;;;5.18;;
26540;SDS011;14206;50.202;10.948;2023-04-29T01:18:54;5.35;;;4.85;;
26540;SDS011;14206;50.202;10.948;2023-04-29T01:21:31;4.50;;;4.10;;
26540;SDS011;14206;50.202;10.948;2023-04-29T01:23:58;5.65;;;5.07;;
26540;SDS011;14206;50.202;10.948;2023-04-29T01:26:29;7.45;;;6.75;;
26540;SDS011;14206;50.202;10.948;2023-04-29T01:29:43;6.63;;;6.03;;
26540;SDS011;14206;50.202;10.948;2023-04-29T01:32:23;6.22;;;5.53;;
26540;SDS011;14206;50.202;10.948;2023-04-29T01:43:27;6.60;;;6.00;;
26540;SDS011;14206;50.202;10.948;2023-04-29T01:46:08;5.97;;;5.38;;
26540;SDS011;14206;50.202;10.948;2023-04-29T01:48:35;6.60;;;6.00;;
26540;SDS011;14206;50.202;10.948;2023-04-29T01:51:02;6.70;;;6.10;;
26540;SDS011;14206;50.202;10.948;2023-04-29T01:53:31;6.57;;;5.97;;
26540;SDS011;14206;50.202;10.948;2023-04-29T01:55:58;7.38;;;6.68;;
26540;SDS011;14206;50.202;10.948;2023-04-29T01:58:33;6.35;;;5.75;;
26540;SDS011;14206;50.202;10.948;2023-04-29T02:01:23;5.80;;;5.20;;
26540;SDS011;14206;50.202;10.948;2023-04-29T02:03:51;4.63;;;4.22;;
26540;SDS011;14206;50.202;10.948;2023-04-29T02:06:18;5.50;;;5.00;;
26540;SDS011;14206;50.202;10.948;2023-04-29T02:08:49;5.38;;;4.88;;
26540;SDS011;14206;50.202;10.948;2023-04-29T02:11:16;9.75;;;8.75;;
26540;SDS011;14206;50.202;10.948;2023-04-29T02:13:43;8.30;;;7.50;;
26540;SDS011;14206;50.202;10.948;2023-04-29T02:16:13;7.10;;;6.40;;
26540;SDS011;14206;50.202;10.948;2023-04-29T02:18:50;6.03;;;5.45;;
26540;SDS011;14206;50.202;10.948;2023-04-29T02:21:19;6.30;;;5.70;;
26540;SDS011;14206;50.202;10.948;2023-04-29T02:23:45;5.38;;;4.88;;
26540;SDS011;14206;50.202;10.948;2023-04-29T02:26:12;6.00;;;5.47;;
26540;SDS011;14206;50.202;10.948;2023-04-29T02:28:40;5.88;;;5.32;;
26540;SDS011;14206;50.202;10.948;2023-04-29T02:31:07;5.40;;;4.80;;
26540;SDS011;14206;50.202;10.948;2023-04-29T02:33:34;6.57;;;5.97;;
26540;SDS011;14206;50.202;10.948;2023-04-29T02:36:01;5.80;;;5.30;;
26540;SDS011;14206;50.202;10.948;2023-04-29T02:38:28;5.55;;;5.05;;
26540;SDS011;14206;50.202;10.948;2023-04-29T02:40:55;4.90;;;4.50;;
26540;SDS011;14206;50.202;10.948;2023-04-29T02:43:22;5.05;;;4.55;;
26540;SDS011;14206;50.202;10.948;2023-04-29T02:45:49;8.07;;;7.28;;
26540;SDS011;14206;50.202;10.948;2023-04-29T02:48:16;6.45;;;5.85;;
26540;SDS011;14206;50.202;10.948;2023-04-29T02:50:43;6.82;;;6.15;;
26540;SDS011;14206;50.202;10.948;2023-04-29T02:53:10;6.75;;;6.15;;
26540;SDS011;14206;50.202;10.948;2023-04-29T02:55:36;7.38;;;6.68;;
26540;SDS011;14206;50.202;10.948;2023-04-29T02:58:07;9.50;;;8.40;;
26540;SDS011;14206;50.202;10.948;2023-04-29T03:00:34;8.55;;;7.65;;
26540;SDS011;14206;50.202;10.948;2023-04-29T03:03:01;8.13;;;7.32;;
26540;SDS011;14206;50.202;10.948;2023-04-29T03:05:28;8.90;;;8.00;;
26540;SDS011;14206;50.202;10.948;2023-04-29T03:07:55;8.15;;;7.32;;
26540;SDS011;14206;50.202;10.948;2023-04-29T03:10:22;8.95;;;8.05;;
26540;SDS011;14206;50.202;10.948;2023-04-29T03:12:49;8.02;;;7.22;;
26540;SDS011;14206;50.202;10.948;2023-04-29T03:15:16;8.52;;;7.68;;
26540;SDS011;14206;50.202;10.948;2023-04-29T03:17:44;6.78;;;6.18;;
26540;SDS011;14206;50.202;10.948;2023-04-29T03:20:12;6.50;;;5.90;;
26540;SDS011;14206;50.202;10.948;2023-04-29T03:22:39;9.13;;;8.23;;
26540;SDS011;14206;50.202;10.948;2023-04-29T03:25:06;7.60;;;6.90;;
26540;SDS011;14206;50.202;10.948;2023-04-29T03:27:33;7.40;;;6.70;;
26540;SDS011;14206;50.202;10.948;2023-04-29T03:30:00;6.95;;;6.25;;
26540;SDS011;14206;50.202;10.948;2023-04-29T03:32:27;6.32;;;5.72;;
26540;SDS011;14206;50.202;10.948;2023-04-29T03:34:54;6.50;;;5.90;;
26540;SDS011;14206;50.202;10.948;2023-04-29T03:37:31;6.55;;;5.95;;
26540;SDS011;14206;50.202;10.948;2023-04-29T03:40:15;6.35;;;5.75;;
26540;SDS011;14206;50.202;10.948;2023-04-29T03:42:42;5.88;;;5.28;;
26540;SDS011;14206;50.202;10.948;2023-04-29T03:45:09;7.00;;;5.65;;
26540;SDS011;14206;50.202;10.948;2023-04-29T03:47:39;7.03;;;6.05;;
26540;SDS011;14206;50.202;10.948;2023-04-29T03:50:06;5.40;;;4.90;;
26540;SDS011;14206;50.202;10.948;2023-04-29T03:52:33;5.72;;;5.13;;
26540;SDS011;14206;50.202;10.948;2023-04-29T03:55:06;5.93;;;5.32;;
26540;SDS011;14206;50.202;10.948;2023-04-29T03:57:34;5.53;;;4.93;;
26540;SDS011;14206;50.202;10.948;2023-04-29T04:00:01;8.82;;;7.93;;
26540;SDS011;14206;50.202;10.948;2023-04-29T04:02:38;9.52;;;8.63;;
26540;SDS011;14206;50.202;10.948;2023-04-29T04:05:08;8.93;;;8.02;;
26540;SDS011;14206;50.202;10.948;2023-04-29T04:07:37;7.60;;;6.90;;
26540;SDS011;14206;50.202;10.948;2023-04-29T04:10:33;5.30;;;4.80;;
26540;SDS011;14206;50.202;10.948;2023-04-29T04:13:05;4.80;;;4.40;;
26540;SDS011;14206;50.202;10.948;2023-04-29T04:15:32;6.82;;;5.75;;
26540;SDS011;14206;50.202;10.948;2023-04-29T04:17:58;6.30;;;5.70;;
26540;SDS011;14206;50.202;10.948;2023-04-29T04:20:26;7.97;;;7.10;;
26540;SDS011;14206;50.202;10.948;2023-04-29T04:22:52;8.93;;;8.02;;
26540;SDS011;14206;50.202;10.948;2023-04-29T04:25:23;7.90;;;7.10;;
26540;SDS011;14206;50.202;10.948;2023-04-29T04:27:53;8.90;;;8.00;;
26540;SDS011;14206;50.202;10.948;2023-04-29T04:30:38;7.80;;;7.00;;
26540;SDS011;14206;50.202;10.948;2023-04-29T04:33:05;7.20;;;6.50;;
26540;SDS011;14206;50.202;10.948;2023-04-29T04:35:33;8.05;;;7.25;;
26540;SDS011;14206;50.202;10.948;2023-04-29T04:37:59;8.02;;;7.22;;
26540;SDS011;14206;50.202;10.948;2023-04-29T04:40:26;9.13;;;8.23;;
26540;SDS011;14206;50.202;10.948;2023-04-29T04:43:13;8.40;;;7.50;;
26540;SDS011;14206;50.202;10.948;2023-04-29T04:45:40;7.00;;;6.40;;
26540;SDS011;14206;50.202;10.948;2023-04-29T04:48:07;7.30;;;6.50;;
26540;SDS011;14206;50.202;10.948;2023-04-29T04:50:36;6.70;;;6.10;;
26540;SDS011;14206;50.202;10.948;2023-04-29T04:53:04;6.40;;;5.78;;
26540;SDS011;14206;50.202;10.948;2023-04-29T04:55:42;7.68;;;6.88;;
26540;SDS011;14206;50.202;10.948;2023-04-29T04:58:08;6.90;;;6.20;;
26540;SDS011;14206;50.202;10.948;2023-04-29T05:00:37;6.10;;;5.50;;
26540;SDS011;14206;50.202;10.948;2023-04-29T05:03:04;7.50;;;6.70;;
26540;SDS011;14206;50.202;10.948;2023-04-29T05:05:32;6.10;;;5.50;;
26540;SDS011;14206;50.202;10.948;2023-04-29T05:07:59;7.63;;;6.82;;
26540;SDS011;14206;50.202;10.948;2023-04-29T05:10:36;6.85;;;6.15;;
26540;SDS011;14206;50.202;10.948;2023-04-29T05:13:04;6.00;;;5.40;;
26540;SDS011;14206;50.202;10.948;2023-04-29T05:15:33;5.43;;;4.93;;
26540;SDS011;14206;50.202;10.948;2023-04-29T05:18:01;6.13;;;5.53;;
26540;SDS011;14206;50.202;10.948;2023-04-29T05:20:29;7.00;;;6.30;;
26540;SDS011;14206;50.202;10.948;2023-04-29T05:22:57;7.28;;;6.57;;
26540;SDS011;14206;50.202;10.948;2023-04-29T05:25:25;9.60;;;7.50;;
26540;SDS011;14206;50.202;10.948;2023-04-29T05:27:53;9.00;;;8.10;;
26540;SDS011;14206;50.202;10.948;2023-04-29T05:30:21;8.82;;;7.93;;
26540;SDS011;14206;50.202;10.948;2023-04-29T05:32:48;7.90;;;7.10;;
26540;SDS011;14206;50.202;10.948;2023-04-29T05:35:17;9.18;;;8.25;;
26540;SDS011;14206;50.202;10.948;2023-04-29T05:37:44;8.68;;;7.78;;
26540;SDS011;14206;50.202;10.948;2023-04-29T05:40:30;9.88;;;8.68;;
26540;SDS011;14206;50.202;10.948;2023-04-29T05:43:16;8.30;;;7.07;;
26540;SDS011;14206;50.202;10.948;2023-04-29T05:45:45;8.80;;;7.90;;
26540;SDS011;14206;50.202;10.948;2023-04-29T05:48:12;8.10;;;7.30;;
26540;SDS011;14206;50.202;10.948;2023-04-29T05:50:39;9.65;;;8.32;;
26540;SDS011;14206;50.202;10.948;2023-04-29T05:53:06;9.30;;;8.40;;
26540;SDS011;14206;50.202;10.948;2023-04-29T05:55:34;8.73;;;7.82;;
26540;SDS011;14206;50.202;10.948;2023-04-29T05:58:01;9.75;;;8.07;;
26540;SDS011;14206;50.202;10.948;2023-04-29T06:00:28;9.30;;;8.30;;
26540;SDS011;14206;50.202;10.948;2023-04-29T06:03:00;8.70;;;7.80;;
26540;SDS011;14206;50.202;10.948;2023-04-29T06:05:27;11.73;;;8.18;;
26540;SDS011;14206;50.202;10.948;2023-04-29T06:08:18;10.52;;;8.20;;
26540;SDS011;14206;50.202;10.948;2023-04-29T06:10:51;9.73;;;8.50;;
26540;SDS011;14206;50.202;10.948;2023-04-29T06:13:18;9.55;;;8.45;;
26540;SDS011;14206;50.202;10.948;2023-04-29T06:15:45;8.50;;;7.60;;
26540;SDS011;14206;50.202;10.948;2023-04-29T06:18:13;9.73;;;7.43;;
26540;SDS011;14206;50.202;10.948;2023-04-29T06:20:41;8.88;;;7.97;;
26540;SDS011;14206;50.202;10.948;2023-04-29T06:23:08;9.35;;;7.93;;
26540;SDS011;14206;50.202;10.948;2023-04-29T06:25:35;9.35;;;8.02;;
26540;SDS011;14206;50.202;10.948;2023-04-29T06:28:05;7.43;;;6.63;;
26540;SDS011;14206;50.202;10.948;2023-04-29T06:30:34;6.82;;;6.13;;
26540;SDS011;14206;50.202;10.948;2023-04-29T06:33:01;7.07;;;6.00;;
26540;SDS011;14206;50.202;10.948;2023-04-29T06:35:28;7.50;;;6.70;;
26540;SDS011;14206;50.202;10.948;2023-04-29T06:38:08;7.70;;;6.18;;
26540;SDS011;14206;50.202;10.948;2023-04-29T06:40:43;8.57;;;7.18;;
26540;SDS011;14206;50.202;10.948;2023-04-29T06:43:29;7.57;;;6.70;;
26540;SDS011;14206;50.202;10.948;2023-04-29T06:49:03;5.50;;;5.00;;
26540;SDS011;14206;50.202;10.948;2023-04-29T06:51:32;4.95;;;4.45;;
26540;SDS011;14206;50.202;10.948;2023-04-29T06:53:58;5.43;;;4.93;;
26540;SDS011;14206;50.202;10.948;2023-04-29T06:56:25;7.43;;;6.65;;
26540;SDS011;14206;50.202;10.948;2023-04-29T06:58:52;6.20;;;5.13;;
26540;SDS011;14206;50.202;10.948;2023-04-29T07:01:19;6.22;;;5.60;;
26540;SDS011;14206;50.202;10.948;2023-04-29T07:03:48;5.63;;;4.60;;
26540;SDS011;14206;50.202;10.948;2023-04-29T07:06:17;6.90;;;5.22;;
26540;SDS011;14206;50.202;10.948;2023-04-29T07:08:44;5.35;;;4.85;;
26540;SDS011;14206;50.202;10.948;2023-04-29T07:11:13;4.80;;;4.35;;
26540;SDS011;14206;50.202;10.948;2023-04-29T07:13:40;4.95;;;4.47;;
26540;SDS011;14206;50.202;10.948;2023-04-29T07:16:13;4.88;;;4.38;;
26540;SDS011;14206;50.202;10.948;2023-04-29T07:18:43;4.25;;;3.85;;
26540;SDS011;14206;50.202;10.948;2023-04-29T07:21:09;5.45;;;4.95;;
26540;SDS011;14206;50.202;10.948;2023-04-29T07:23:36;4.80;;;4.35;;
26540;SDS011;14206;50.202;10.948;2023-04-29T07:26:12;6.07;;;5.47;;
26540;SDS011;14206;50.202;10.948;2023-04-29T07:28:43;5.47;;;4.97;;
26540;SDS011;14206;50.202;10.948;2023-04-29T07:31:10;6.13;;;5.53;;
26540;SDS011;14206;50.202;10.948;2023-04-29T07:33:37;5.22;;;4.60;;
26540;SDS011;14206;50.202;10.948;2023-04-29T07:36:05;4.65;;;4.25;;
26540;SDS011;14206;50.202;10.948;2023-04-29T07:38:35;3.90;;;3.53;;
26540;SDS011;14206;50.202;10.948;2023-04-29T07:41:02;5.30;;;4.80;;
26540;SDS011;14206;50.202;10.948;2023-04-29T07:43:32;4.13;;;3.50;;
26540;SDS011;14206;50.202;10.948;2023-04-29T07:45:59;4.78;;;3.67;;
26540;SDS011;14206;50.202;10.948;2023-04-29T07:48:26;3.20;;;2.90;;
26540;SDS011;14206;50.202;10.948;2023-04-29T07:50:53;4.03;;;3.40;;
26540;SDS011;14206;50.202;10.948;2023-04-29T07:53:19;3.17;;;2.88;;
26540;SDS011;14206;50.202;10.948;2023-04-29T07:55:48;3.72;;;3.42;;
26540;SDS011;14206;50.202;10.948;2023-04-29T07:58:17;3.63;;;3.33;;
26540;SDS011;14206;50.202;10.948;2023-04-29T08:00:44;3.47;;;3.17;;
26540;SDS011;14206;50.202;10.948;2023-04-29T08:03:12;3.92;;;3.60;;
26540;SDS011;14206;50.202;10.948;2023-04-29T08:05:39;2.90;;;2.70;;
26540;SDS011;14206;50.202;10.948;2023-04-29T08:08:07;3.65;;;3.10;;
26540;SDS011;14206;50.202;10.948;2023-04-29T08:10:36;3.03;;;2.53;;
26540;SDS011;14206;50.202;10.948;2023-04-29T08:13:07;3.40;;;3.10;;
26540;SDS011;14206;50.202;10.948;2023-04-29T08:15:34;2.80;;;2.60;;
26540;SDS011;14206;50.202;10.948;2023-04-29T08:18:01;2.70;;;2.50;;
26540;SDS011;14206;50.202;10.948;2023-04-29T08:20:28;2.60;;;2.40;;
26540;SDS011;14206;50.202;10.948;2023-04-29T08:22:57;2.85;;;2.65;;
26540;SDS011;14206;50.202;10.948;2023-04-29T08:25:25;2.63;;;2.40;;
26540;SDS011;14206;50.202;10.948;2023-04-29T08:27:55;1.85;;;1.75;;
26540;SDS011;14206;50.202;10.948;2023-04-29T08:30:23;2.15;;;1.95;;
26540;SDS011;14206;50.202;10.948;2023-04-29T08:32:49;2.10;;;1.90;;
26540;SDS011;14206;50.202;10.948;2023-04-29T08:35:16;2.63;;;1.80;;
26540;SDS011;14206;50.202;10.948;2023-04-29T08:37:43;3.05;;;2.75;;
26540;SDS011;14206;50.202;10.948;2023-04-29T08:40:10;3.38;;;2.50;;
26540;SDS011;14206;50.202;10.948;2023-04-29T08:42:38;2.75;;;2.53;;
26540;SDS011;14206;50.202;10.948;2023-04-29T08:45:05;2.33;;;2.10;;
26540;SDS011;14206;50.202;10.948;2023-04-29T08:47:32;2.17;;;1.88;;
26540;SDS011;14206;50.202;10.948;2023-04-29T08:50:00;2.80;;;2.50;;
26540;SDS011;14206;50.202;10.948;2023-04-29T08:52:31;2.90;;;2.70;;
26540;SDS011;14206;50.202;10.948;2023-04-29T08:54:58;3.17;;;2.88;;
26540;SDS011;14206;50.202;10.948;2023-04-29T08:57:28;2.40;;;2.20;;
26540;SDS011;14206;50.202;10.948;2023-04-29T08:59:57;3.00;;;2.70;;
26540;SDS011;14206;50.202;10.948;2023-04-29T09:02:25;2.97;;;2.60;;
26540;SDS011;14206;50.202;10.948;2023-04-29T09:04:59;3.28;;;2.95;;
26540;SDS011;14206;50.202;10.948;2023-04-29T09:07:34;3.10;;;2.80;;
26540;SDS011;14206;50.202;10.948;2023-04-29T09:10:03;3.47;;;2.65;;
26540;SDS011;14206;50.202;10.948;2023-04-29T09:12:30;2.65;;;2.45;;
26540;SDS011;14206;50.202;10.948;2023-04-29T09:14:57;3.05;;;2.10;;
26540;SDS011;14206;50.202;10.948;2023-04-29T09:25:14;2.05;;;1.92;;
26540;SDS011;14206;50.202;10.948;2023-04-29T09:27:41;3.10;;;2.80;;
26540;SDS011;14206;50.202;10.948;2023-04-29T09:30:08;2.17;;;1.98;;
26540;SDS011;14206;50.202;10.948;2023-04-29T09:32:36;2.45;;;2.20;;
26540;SDS011;14206;50.202;10.948;2023-04-29T09:37:47;1.70;;;1.60;;
26540;SDS011;14206;50.202;10.948;2023-04-29T09:40:26;1.85;;;1.75;;
26540;SDS011;14206;50.202;10.948;2023-04-29T09:42:55;2.13;;;1.90;;
26540;SDS011;14206;50.202;10.948;2023-04-29T09:45:39;1.60;;;1.50;;
26540;SDS011;14206;50.202;10.948;2023-04-29T09:48:08;1.63;;;1.52;;
26540;SDS011;14206;50.202;10.948;2023-04-29T09:50:36;1.50;;;1.40;;
26540;SDS011;14206;50.202;10.948;2023-04-29T09:53:04;1.63;;;1.40;;
26540;SDS011;14206;50.202;10.948;2023-04-29T09:58:29;1.50;;;1.40;;
26540;SDS011;14206;50.202;10.948;2023-04-29T10:00:59;1.30;;;1.20;;
26540;SDS011;14206;50.202;10.948;2023-04-29T10:03:30;1.75;;;1.63;;
26540;SDS011;14206;50.202;10.948;2023-04-29T10:05:59;1.40;;;1.30;;
26540;SDS011;14206;50.202;10.948;2023-04-29T10:08:29;1.50;;;1.40;;
26540;SDS011;14206;50.202;10.948;2023-04-29T10:11:03;1.58;;;1.48;;
26540;SDS011;14206;50.202;10.948;2023-04-29T10:13:31;1.67;;;1.48;;
26540;SDS011;14206;50.202;10.948;2023-04-29T10:16:07;1.33;;;1.20;;
26540;SDS011;14206;50.202;10.948;2023-04-29T10:18:39;2.42;;;1.40;;
26540;SDS011;14206;50.202;10.948;2023-04-29T10:21:07;1.50;;;1.40;;
26540;SDS011;14206;50.202;10.948;2023-04-29T10:23:37;1.20;;;1.10;;
26540;SDS011;14206;50.202;10.948;2023-04-29T10:26:07;1.15;;;1.05;;
26540;SDS011;14206;50.202;10.948;2023-04-29T10:28:37;1.17;;;0.90;;
26540;SDS011;14206;50.202;10.948;2023-04-29T10:31:08;0.82;;;0.82;;
26540;SDS011;14206;50.202;10.948;2023-04-29T10:33:36;0.80;;;0.80;;
26540;SDS011;14206;50.202;10.948;2023-04-29T10:36:05;0.70;;;0.70;;
26540;SDS011;14206;50.202;10.948;2023-04-29T10:38:42;0.60;;;0.60;;
26540;SDS011;14206;50.202;10.948;2023-04-29T10:41:20;0.60;;;0.60;;
26540;SDS011;14206;50.202;10.948;2023-04-29T10:43:54;0.80;;;0.80;;
26540;SDS011;14206;50.202;10.948;2023-04-29T10:46:21;0.70;;;0.70;;
26540;SDS011;14206;50.202;10.948;2023-04-29T10:48:50;0.80;;;0.80;;
26540;SDS011;14206;50.202;10.948;2023-04-29T10:51:29;0.60;;;0.60;;
26540;SDS011;14206;50.202;10.948;2023-04-29T10:54:13;1.23;;;0.90;;
26540;SDS011;14206;50.202;10.948;2023-04-29T10:56:42;0.80;;;0.80;;
26540;SDS011;14206;50.202;10.948;2023-04-29T10:59:13;1.95;;;0.90;;
26540;SDS011;14206;50.202;10.948;2023-04-29T11:04:11;0.80;;;0.80;;
26540;SDS011;14206;50.202;10.948;2023-04-29T11:06:40;0.85;;;0.85;;
26540;SDS011;14206;50.202;10.948;2023-04-29T11:09:13;0.77;;;0.77;;
26540;SDS011;14206;50.202;10.948;2023-04-29T11:12:00;1.02;;;0.95;;
26540;SDS011;14206;50.202;10.948;2023-04-29T11:14:35;1.10;;;1.00;;
26540;SDS011;14206;50.202;10.948;2023-04-29T11:17:10;1.60;;;0.98;;
26540;SDS011;14206;50.202;10.948;2023-04-29T11:19:40;1.13;;;0.90;;
26540;SDS011;14206;50.202;10.948;2023-04-29T11:25:05;1.35;;;0.80;;
26540;SDS011;14206;50.202;10.948;2023-04-29T11:27:35;1.73;;;1.20;;
26540;SDS011;14206;50.202;10.948;2023-04-29T11:30:04;1.10;;;1.00;;
26540;SDS011;14206;50.202;10.948;2023-04-29T11:32:34;1.98;;;1.10;;
26540;SDS011;14206;50.202;10.948;2023-04-29T11:35:06;0.70;;;0.70;;
26540;SDS011;14206;50.202;10.948;2023-04-29T11:37:44;0.90;;;0.90;;
26540;SDS011;14206;50.202;10.948;2023-04-29T11:40:12;1.05;;;0.90;;
26540;SDS011;14206;50.202;10.948;2023-04-29T11:42:43;1.10;;;1.00;;
26540;SDS011;14206;50.202;10.948;2023-04-29T11:45:16;0.70;;;0.70;;
26540;SDS011;14206;50.202;10.948;2023-04-29T11:47:44;1.27;;;1.05;;
26540;SDS011;14206;50.202;10.948;2023-04-29T11:50:12;0.63;;;0.63;;
26540;SDS011;14206;50.202;10.948;2023-04-29T11:52:42;0.75;;;0.75;;
26540;SDS011;14206;50.202;10.948;2023-04-29T11:55:10;0.60;;;0.60;;
26540;SDS011;14206;50.202;10.948;2023-04-29T11:57:37;0.60;;;0.60;;
26540;SDS011;14206;50.202;10.948;2023-04-29T12:00:09;0.57;;;0.57;;
26540;SDS011;14206;50.202;10.948;2023-04-29T12:02:38;0.77;;;0.77;;
26540;SDS011;14206;50.202;10.948;2023-04-29T12:05:08;0.57;;;0.57;;
26540;SDS011;14206;50.202;10.948;2023-04-29T12:07:38;0.70;;;0.60;;
26540;SDS011;14206;50.202;10.948;2023-04-29T12:10:08;0.70;;;0.70;;
26540;SDS011;14206;50.202;10.948;2023-04-29T12:12:37;0.50;;;0.50;;
26540;SDS011;14206;50.202;10.948;2023-04-29T12:15:06;0.60;;;0.60;;
26540;SDS011;14206;50.202;10.948;2023-04-29T12:17:35;0.60;;;0.60;;
26540;SDS011;14206;50.202;10.948;2023-04-29T12:20:03;1.05;;;0.60;;
26540;SDS011;14206;50.202;10.948;2023-04-29T12:22:31;0.60;;;0.60;;
26540;SDS011;14206;50.202;10.948;2023-04-29T12:24:58;0.40;;;0.40;;
26540;SDS011;14206;50.202;10.948;2023-04-29T12:27:25;0.40;;;0.40;;
26540;SDS011;14206;50.202;10.948;2023-04-29T12:29:52;0.50;;;0.50;;
26540;SDS011;14206;50.202;10.948;2023-04-29T12:32:22;0.50;;;0.50;;
26540;SDS011;14206;50.202;10.948;2023-04-29T12:34:50;0.40;;;0.40;;
26540;SDS011;14206;50.202;10.948;2023-04-29T12:37:20;0.40;;;0.40;;
26540;SDS011;14206;50.202;10.948;2023-04-29T12:39:49;0.50;;;0.50;;
26540;SDS011;14206;50.202;10.948;2023-04-29T12:42:16;0.45;;;0.35;;
26540;SDS011;14206;50.202;10.948;2023-04-29T12:44:44;1.08;;;0.98;;
26540;SDS011;14206;50.202;10.948;2023-04-29T12:47:14;0.65;;;0.63;;
26540;SDS011;14206;50.202;10.948;2023-04-29T12:49:43;0.88;;;0.60;;
26540;SDS011;14206;50.202;10.948;2023-04-29T12:52:11;0.50;;;0.50;;
26540;SDS011;14206;50.202;10.948;2023-04-29T12:54:38;0.50;;;0.50;;
26540;SDS011;14206;50.202;10.948;2023-04-29T12:57:16;0.80;;;0.80;;
26540;SDS011;14206;50.202;10.948;2023-04-29T12:59:42;1.10;;;0.90;;
26540;SDS011;14206;50.202;10.948;2023-04-29T13:02:09;0.70;;;0.70;;
26540;SDS011;14206;50.202;10.948;2023-04-29T13:04:37;0.73;;;0.73;;
26540;SDS011;14206;50.202;10.948;2023-04-29T13:07:05;0.90;;;0.80;;
26540;SDS011;14206;50.202;10.948;2023-04-29T13:09:32;0.80;;;0.80;;
26540;SDS011;14206;50.202;10.948;2023-04-29T13:12:00;0.88;;;0.88;;
26540;SDS011;14206;50.202;10.948;2023-04-29T13:14:28;1.02;;;0.80;;
26540;SDS011;14206;50.202;10.948;2023-04-29T13:16:55;0.52;;;0.52;;
26540;SDS011;14206;50.202;10.948;2023-04-29T13:19:23;1.15;;;0.60;;
26540;SDS011;14206;50.202;10.948;2023-04-29T13:22:09;0.75;;;0.75;;
26540;SDS011;14206;50.202;10.948;2023-04-29T13:24:36;0.73;;;0.70;;
26540;SDS011;14206;50.202;10.948;2023-04-29T13:27:03;0.70;;;0.70;;
26540;SDS011;14206;50.202;10.948;2023-04-29T13:29:31;0.77;;;0.77;;
26540;SDS011;14206;50.202;10.948;2023-04-29T13:31:57;0.70;;;0.70;;
26540;SDS011;14206;50.202;10.948;2023-04-29T13:34:24;0.60;;;0.60;;
26540;SDS011;14206;50.202;10.948;2023-04-29T13:36:51;0.60;;;0.60;;
26540;SDS011;14206;50.202;10.948;2023-04-29T13:39:18;0.60;;;0.60;;
26540;SDS011;14206;50.202;10.948;2023-04-29T13:41:48;0.57;;;0.57;;
26540;SDS011;14206;50.202;10.948;2023-04-29T13:44:15;0.63;;;0.63;;
26540;SDS011;14206;50.202;10.948;2023-04-29T13:46:56;1.02;;;0.93;;
26540;SDS011;14206;50.202;10.948;2023-04-29T13:49:23;1.10;;;1.00;;
26540;SDS011;14206;50.202;10.948;2023-04-29T13:52:10;0.90;;;0.85;;
26540;SDS011;14206;50.202;10.948;2023-04-29T13:54:57;1.27;;;1.17;;
26540;SDS011;14206;50.202;10.948;2023-04-29T13:57:29;1.20;;;1.10;;
26540;SDS011;14206;50.202;10.948;2023-04-29T13:59:59;1.20;;;1.10;;
26540;SDS011;14206;50.202;10.948;2023-04-29T14:02:36;0.85;;;0.85;;
26540;SDS011;14206;50.202;10.948;2023-04-29T14:05:04;1.48;;;1.20;;
26540;SDS011;14206;50.202;10.948;2023-04-29T14:07:32;1.65;;;1.55;;
26540;SDS011;14206;50.202;10.948;2023-04-29T14:09:58;1.60;;;1.30;;
26540;SDS011;14206;50.202;10.948;2023-04-29T14:12:25;1.60;;;1.50;;
26540;SDS011;14206;50.202;10.948;2023-04-29T14:14:52;2.10;;;1.90;;
26540;SDS011;14206;50.202;10.948;2023-04-29T14:17:19;2.03;;;1.83;;
26540;SDS011;14206;50.202;10.948;2023-04-29T14:19:46;1.90;;;1.60;;
26540;SDS011;14206;50.202;10.948;2023-04-29T14:22:13;1.83;;;1.70;;
26540;SDS011;14206;50.202;10.948;2023-04-29T14:24:39;2.30;;;2.10;;
26540;SDS011;14206;50.202;10.948;2023-04-29T14:27:06;2.00;;;1.80;;
26540;SDS011;14206;50.202;10.948;2023-04-29T14:29:33;1.63;;;1.52;;
26540;SDS011;14206;50.202;10.948;2023-04-29T14:32:00;2.40;;;2.20;;
26540;SDS011;14206;50.202;10.948;2023-04-29T14:34:27;2.17;;;1.98;;
26540;SDS011;14206;50.202;10.948;2023-04-29T14:36:53;2.33;;;2.13;;
26540;SDS011;14206;50.202;10.948;2023-04-29T14:39:20;5.22;;;1.70;;
26540;SDS011;14206;50.202;10.948;2023-04-29T14:41:47;2.47;;;1.98;;
26540;SDS011;14206;50.202;10.948;2023-04-29T14:44:14;3.05;;;2.10;;
26540;SDS011;14206;50.202;10.948;2023-04-29T14:46:41;2.67;;;2.45;;
26540;SDS011;14206;50.202;10.948;2023-04-29T14:49:08;2.33;;;2.10;;
26540;SDS011;14206;50.202;10.948;2023-04-29T14:51:35;2.97;;;2.20;;
26540;SDS011;14206;50.202;10.948;2023-04-29T14:54:02;1.75;;;1.65;;
26540;SDS011;14206;50.202;10.948;2023-04-29T14:56:29;3.20;;;2.58;;
26540;SDS011;14206;50.202;10.948;2023-04-29T14:58:56;4.35;;;3.72;;
26540;SDS011;14206;50.202;10.948;2023-04-29T15:01:22;6.07;;;4.53;;
26540;SDS011;14206;50.202;10.948;2023-04-29T15:03:49;4.80;;;3.80;;
26540;SDS011;14206;50.202;10.948;2023-04-29T15:06:16;3.20;;;2.90;;
26540;SDS011;14206;50.202;10.948;2023-04-29T15:08:43;4.05;;;3.58;;
26540;SDS011;14206;50.202;10.948;2023-04-29T15:11:10;3.83;;;3.10;;
26540;SDS011;14206;50.202;10.948;2023-04-29T15:13:37;5.35;;;3.30;;
26540;SDS011;14206;50.202;10.948;2023-04-29T15:16:04;3.95;;;3.45;;
26540;SDS011;14206;50.202;10.948;2023-04-29T15:18:32;3.95;;;3.20;;
26540;SDS011;14206;50.202;10.948;2023-04-29T15:20:59;4.20;;;3.65;;
26540;SDS011;14206;50.202;10.948;2023-04-29T15:23:26;4.40;;;3.80;;